createdAt,value
2023-04-13T00:00:02.643Z,0.02
2023-04-13T00:01:02.543Z,0.03
2023-04-13T00:02:03.023Z,0.03
2023-04-13T00:03:03.000Z,0.03
2023-04-13T00:04:02.949Z,0.03
2023-04-13T00:05:02.747Z,0.02
2023-04-13T00:06:02.406Z,0.02
2023-04-13T00:07:03.480Z,0.02
2023-04-13T00:08:03.210Z,0.03
2023-04-13T00:09:03.402Z,0.03
2023-04-13T00:10:03.567Z,0.02
2023-04-13T00:11:03.296Z,0.02
2023-04-13T00:12:03.651Z,0.01
2023-04-13T00:13:03.839Z,0.02
2023-04-13T00:14:03.755Z,0.02
2023-04-13T00:15:03.200Z,0.02
2023-04-13T00:16:03.400Z,0.03
2023-04-13T00:17:03.835Z,0.02
2023-04-13T00:18:03.700Z,0.01
2023-04-13T00:19:03.668Z,0.01
2023-04-13T00:20:03.349Z,0.02
2023-04-13T00:21:03.473Z,0.02
2023-04-13T00:22:02.358Z,0.03
2023-04-13T00:23:02.745Z,0.02
2023-04-13T00:24:02.708Z,0.02
2023-04-13T00:25:02.390Z,0.02
2023-04-13T00:26:02.672Z,0.02
2023-04-13T00:27:02.885Z,0.02
2023-04-13T00:28:03.039Z,0.02
2023-04-13T00:29:03.030Z,0.02
2023-04-13T00:30:02.741Z,0.03
2023-04-13T00:31:03.035Z,0.03
2023-04-13T00:32:03.040Z,0.01
2023-04-13T00:33:02.804Z,0.02
2023-04-13T00:34:03.062Z,0.02
2023-04-13T00:35:02.766Z,0.02
2023-04-13T00:36:02.871Z,0.02
2023-04-13T00:37:03.091Z,0.03
2023-04-13T00:38:02.989Z,0.02
2023-04-13T00:39:03.113Z,0.02
2023-04-13T00:40:03.185Z,0.03
2023-04-13T00:41:02.719Z,0.02
2023-04-13T00:42:03.648Z,0.02
2023-04-13T00:43:03.326Z,0.02
2023-04-13T00:44:03.355Z,0.02
2023-04-13T00:45:03.662Z,0.02
2023-04-13T00:46:03.474Z,0.02
2023-04-13T00:47:02.975Z,0.02
2023-04-13T00:48:02.438Z,0.02
2023-04-13T00:49:02.914Z,0.02
2023-04-13T00:50:02.932Z,0.02
2023-04-13T00:51:02.361Z,0.03
2023-04-13T00:52:03.501Z,0.02
2023-04-13T00:53:03.083Z,0.02
2023-04-13T00:54:03.008Z,0.01
2023-04-13T00:55:03.316Z,0.02
2023-04-13T00:56:02.871Z,0.02
2023-04-13T00:57:02.397Z,0.02
2023-04-13T00:58:02.704Z,0.02
2023-04-13T00:59:02.566Z,0.02
2023-04-13T01:00:02.855Z,0.02
2023-04-13T01:01:02.656Z,0.02
2023-04-13T01:02:02.207Z,0.02
2023-04-13T01:03:02.659Z,0.03
2023-04-13T01:04:02.363Z,0.02
2023-04-13T01:05:02.574Z,0.02
2023-04-13T01:06:01.977Z,0.02
2023-04-13T01:07:02.372Z,0.02
2023-04-13T01:08:02.784Z,0.02
2023-04-13T01:09:02.357Z,0.02
2023-04-13T01:10:02.735Z,0.02
2023-04-13T01:11:02.493Z,0.02
2023-04-13T01:12:02.415Z,0.02
2023-04-13T01:13:01.882Z,0.03
2023-04-13T01:14:02.386Z,0.01
2023-04-13T01:15:01.791Z,0.02
2023-04-13T01:16:02.301Z,0.02
2023-04-13T01:18:02.357Z,0.02
2023-04-13T01:20:02.320Z,0.01
2023-04-13T01:21:02.119Z,0.03
2023-04-13T01:22:02.966Z,0.02
2023-04-13T01:23:02.463Z,0.02
2023-04-13T01:24:02.852Z,0.02
2023-04-13T01:25:02.825Z,0.02
2023-04-13T01:26:02.550Z,0.02
2023-04-13T01:27:02.038Z,0.02
2023-04-13T01:28:01.907Z,0.02
2023-04-13T01:29:02.343Z,0.02
2023-04-13T01:30:02.314Z,0.02
2023-04-13T01:31:02.203Z,0.03
2023-04-13T01:32:02.669Z,0.02
2023-04-13T01:33:02.923Z,0.01
2023-04-13T01:34:02.785Z,0.02
2023-04-13T01:35:03.105Z,0.02
2023-04-13T01:36:02.501Z,0.02
2023-04-13T01:37:02.164Z,0.02
2023-04-13T01:38:01.842Z,0.02
2023-04-13T01:39:02.177Z,0.03
2023-04-13T01:40:02.305Z,0.02
2023-04-13T01:41:01.989Z,0.03
2023-04-13T01:42:02.566Z,0.02
2023-04-13T01:43:02.336Z,0.02
2023-04-13T01:44:02.712Z,0.02
2023-04-13T01:45:02.381Z,0.02
2023-04-13T01:46:02.772Z,0.03
2023-04-13T01:47:01.944Z,0.02
2023-04-13T01:48:02.302Z,0.02
2023-04-13T01:49:01.738Z,0.02
2023-04-13T01:50:01.927Z,0.01
2023-04-13T01:51:02.214Z,0.01
2023-04-13T01:52:02.556Z,0.03
2023-04-13T01:53:02.763Z,0.02
2023-04-13T01:54:02.478Z,0.02
2023-04-13T01:55:02.611Z,0.01
2023-04-13T01:56:02.319Z,0.02
2023-04-13T01:57:02.577Z,0.02
2023-04-13T01:58:02.425Z,0.02
2023-04-13T01:59:02.728Z,0.03
2023-04-13T02:00:02.544Z,0.03
2023-04-13T02:01:03.100Z,0.02
2023-04-13T02:02:03.212Z,0.02
2023-04-13T02:03:03.753Z,0.02
2023-04-13T02:04:04.291Z,0.02
2023-04-13T02:05:03.522Z,0.02
2023-04-13T02:06:03.589Z,0.02
2023-04-13T02:07:02.758Z,0.02
2023-04-13T02:08:02.990Z,0.02
2023-04-13T02:09:02.985Z,0.02
2023-04-13T02:10:02.542Z,0.02
2023-04-13T02:11:02.511Z,0.02
2023-04-13T02:12:02.833Z,0.02
2023-04-13T02:13:03.191Z,0.02
2023-04-13T02:14:02.559Z,0.01
2023-04-13T02:15:03.026Z,0.02
2023-04-13T02:16:02.713Z,0.02
2023-04-13T02:17:03.387Z,0.02
2023-04-13T02:18:03.196Z,0.02
2023-04-13T02:19:03.040Z,0.02
2023-04-13T02:20:03.505Z,0.02
2023-04-13T02:21:03.420Z,0.02
2023-04-13T02:22:03.176Z,0.02
2023-04-13T02:23:02.582Z,0.02
2023-04-13T02:24:03.170Z,0.03
2023-04-13T02:25:02.689Z,0.02
2023-04-13T02:26:02.665Z,0.02
2023-04-13T02:27:03.237Z,0.02
2023-04-13T02:28:03.090Z,0.02
2023-04-13T02:29:03.065Z,0.02
2023-04-13T02:30:02.828Z,0.02
2023-04-13T02:31:03.200Z,0.02
2023-04-13T02:32:03.491Z,0.02
2023-04-13T02:33:03.494Z,0.03
2023-04-13T02:34:03.504Z,0.02
2023-04-13T02:35:03.350Z,0.03
2023-04-13T02:36:03.612Z,0.02
2023-04-13T02:37:02.899Z,0.02
2023-04-13T02:38:02.543Z,0.02
2023-04-13T02:39:02.965Z,0.02
2023-04-13T02:40:02.537Z,0.02
2023-04-13T02:41:03.302Z,0.02
2023-04-13T02:42:03.077Z,0.02
2023-04-13T02:43:03.396Z,0.02
2023-04-13T02:44:03.141Z,0.02
2023-04-13T02:45:03.527Z,0.02
2023-04-13T02:46:03.084Z,0.02
2023-04-13T02:47:03.702Z,0.02
2023-04-13T02:48:03.393Z,0.02
2023-04-13T02:49:03.183Z,0.02
2023-04-13T02:50:03.240Z,0.02
2023-04-13T02:51:03.607Z,0.02
2023-04-13T02:52:03.166Z,0.02
2023-04-13T02:53:02.854Z,0.02
2023-04-13T02:54:03.453Z,0.02
2023-04-13T02:55:03.125Z,0.02
2023-04-13T02:56:02.691Z,0.02
2023-04-13T02:57:03.256Z,0.03
2023-04-13T02:58:02.974Z,0.03
2023-04-13T02:59:02.700Z,0.02
2023-04-13T03:00:02.947Z,0.02
2023-04-13T03:01:02.804Z,0.03
2023-04-13T03:02:02.364Z,0.03
2023-04-13T03:03:01.984Z,0.02
2023-04-13T03:04:02.395Z,0.03
2023-04-13T03:05:01.915Z,0.02
2023-04-13T03:06:02.214Z,0.02
2023-04-13T03:07:02.612Z,0.02
2023-04-13T03:08:02.375Z,0.02
2023-04-13T03:09:02.637Z,0.02
2023-04-13T03:10:02.225Z,0.02
2023-04-13T03:11:02.668Z,0.01
2023-04-13T03:12:02.300Z,0.02
2023-04-13T03:13:02.661Z,0.02
2023-04-13T03:14:02.522Z,0.02
2023-04-13T03:15:02.585Z,0.02
2023-04-13T03:16:02.592Z,0.03
2023-04-13T03:17:03.001Z,0.02
2023-04-13T03:18:03.076Z,0.02
2023-04-13T03:19:02.538Z,0.01
2023-04-13T03:20:02.697Z,0.02
2023-04-13T03:21:02.766Z,0.02
2023-04-13T03:22:02.048Z,0.02
2023-04-13T03:23:02.077Z,0.01
2023-04-13T03:24:02.551Z,0.02
2023-04-13T03:25:02.145Z,0.02
2023-04-13T03:26:02.455Z,0.01
2023-04-13T03:27:02.558Z,0.02
2023-04-13T03:28:02.358Z,0.02
2023-04-13T03:29:02.259Z,0.02
2023-04-13T03:30:01.977Z,0.02
2023-04-13T03:31:02.170Z,0.02
2023-04-13T03:32:03.277Z,0.02
2023-04-13T03:33:02.988Z,0.03
2023-04-13T03:34:02.674Z,0.02
2023-04-13T03:35:02.977Z,0.02
2023-04-13T03:36:02.619Z,0.03
2023-04-13T03:37:02.704Z,0.02
2023-04-13T03:38:02.305Z,0.02
2023-04-13T03:39:02.110Z,0.02
2023-04-13T03:40:02.256Z,0.02
2023-04-13T03:41:02.417Z,0.02
2023-04-13T03:42:02.170Z,0.03
2023-04-13T03:43:02.161Z,0.02
2023-04-13T03:44:02.812Z,0.02
2023-04-13T03:45:02.410Z,0.02
2023-04-13T03:46:02.895Z,0.02
2023-04-13T03:47:02.851Z,0.02
2023-04-13T03:48:02.990Z,0.01
2023-04-13T03:49:02.417Z,0.02
2023-04-13T03:50:02.910Z,0.02
2023-04-13T03:51:03.000Z,0.02
2023-04-13T03:52:01.821Z,0.02
2023-04-13T03:53:02.332Z,0.02
2023-04-13T03:54:01.937Z,0.02
2023-04-13T03:55:02.490Z,0.02
2023-04-13T03:56:01.996Z,0.02
2023-04-13T03:57:02.459Z,0.02
2023-04-13T03:58:02.687Z,0.02
2023-04-13T03:59:02.786Z,0.02
2023-04-13T04:00:02.447Z,0.03
2023-04-13T04:01:02.747Z,0.02
2023-04-13T04:02:03.242Z,0.02
2023-04-13T04:03:03.095Z,0.01
2023-04-13T04:04:03.208Z,0.02
2023-04-13T04:05:02.826Z,0.02
2023-04-13T04:06:02.636Z,0.02
2023-04-13T04:07:02.470Z,0.02
2023-04-13T04:08:02.590Z,0.02
2023-04-13T04:09:02.651Z,0.03
2023-04-13T04:10:02.436Z,0.02
2023-04-13T04:11:02.460Z,0.02
2023-04-13T04:12:02.838Z,0.02
2023-04-13T04:13:03.079Z,0.02
2023-04-13T04:14:03.144Z,0.03
2023-04-13T04:15:03.125Z,0.02
2023-04-13T04:16:02.971Z,0.02
2023-04-13T04:17:02.390Z,0.02
2023-04-13T04:18:02.619Z,0.03
2023-04-13T04:19:02.461Z,0.02
2023-04-13T04:20:02.232Z,0.02
2023-04-13T04:21:02.804Z,0.02
2023-04-13T04:22:03.001Z,0.02
2023-04-13T04:23:03.312Z,0.02
2023-04-13T04:24:02.965Z,0.02
2023-04-13T04:25:02.787Z,0.02
2023-04-13T04:26:03.129Z,0.02
2023-04-13T04:27:02.492Z,0.02
2023-04-13T04:28:02.980Z,0.01
2023-04-13T04:29:02.977Z,0.03
2023-04-13T04:30:02.715Z,0.02
2023-04-13T04:31:02.548Z,0.03
2023-04-13T04:32:03.415Z,0.03
2023-04-13T04:33:03.119Z,0.01
2023-04-13T04:34:02.906Z,0.03
2023-04-13T04:35:03.116Z,0.02
2023-04-13T04:36:03.153Z,0.02
2023-04-13T04:37:03.735Z,0.02
2023-04-13T04:38:02.659Z,0.02
2023-04-13T04:39:03.027Z,0.03
2023-04-13T04:40:02.887Z,0.03
2023-04-13T04:41:02.441Z,0.03
2023-04-13T04:42:02.825Z,0.03
2023-04-13T04:43:02.730Z,0.03
2023-04-13T04:44:02.619Z,0.03
2023-04-13T04:45:02.978Z,0.04
2023-04-13T04:46:02.690Z,0.03
2023-04-13T04:47:03.032Z,0.04
2023-04-13T04:48:02.700Z,0.04
2023-04-13T04:49:03.232Z,0.04
2023-04-13T04:50:02.894Z,0.04
2023-04-13T04:51:03.294Z,0.04
2023-04-13T04:52:03.157Z,0.04
2023-04-13T04:53:02.830Z,0.04
2023-04-13T04:54:03.366Z,0.04
2023-04-13T04:55:03.481Z,0.05
2023-04-13T04:56:03.080Z,0.04
2023-04-13T04:57:02.655Z,0.05
2023-04-13T04:58:02.655Z,0.05
2023-04-13T04:59:02.471Z,0.05
2023-04-13T05:00:02.676Z,0.05
2023-04-13T05:01:02.634Z,0.05
2023-04-13T05:02:03.056Z,0.06
2023-04-13T05:03:02.914Z,0.06
2023-04-13T05:04:02.817Z,0.07
2023-04-13T05:05:03.376Z,0.07
2023-04-13T05:06:03.451Z,0.08
2023-04-13T05:07:03.343Z,0.08
2023-04-13T05:08:03.421Z,0.08
2023-04-13T05:09:03.516Z,0.09
2023-04-13T05:10:03.347Z,0.10
2023-04-13T05:11:03.149Z,0.10
2023-04-13T05:12:02.661Z,0.11
2023-04-13T05:13:02.429Z,0.10
2023-04-13T05:14:02.474Z,0.10
2023-04-13T05:15:02.398Z,0.10
2023-04-13T05:16:02.368Z,0.10
2023-04-13T05:17:02.821Z,0.11
2023-04-13T05:18:02.733Z,0.12
2023-04-13T05:19:02.699Z,0.12
2023-04-13T05:20:03.134Z,0.11
2023-04-13T05:21:02.798Z,0.11
2023-04-13T05:22:03.332Z,0.11
2023-04-13T05:23:03.020Z,0.11
2023-04-13T05:24:03.309Z,0.12
2023-04-13T05:25:03.338Z,0.12
2023-04-13T05:26:03.280Z,0.14
2023-04-13T05:27:02.853Z,0.14
2023-04-13T05:28:02.785Z,0.14
2023-04-13T05:29:02.731Z,0.14
2023-04-13T05:30:02.673Z,0.15
2023-04-13T05:31:02.470Z,0.13
2023-04-13T05:32:03.058Z,0.15
2023-04-13T05:33:02.558Z,0.15
2023-04-13T05:34:02.517Z,0.15
2023-04-13T05:35:02.536Z,0.15
2023-04-13T05:36:02.733Z,0.15
2023-04-13T05:37:02.777Z,0.16
2023-04-13T05:38:03.018Z,0.17
2023-04-13T05:39:02.918Z,0.17
2023-04-13T05:40:02.928Z,0.18
2023-04-13T05:41:02.801Z,0.18
2023-04-13T05:42:02.653Z,0.19
2023-04-13T05:43:02.255Z,0.21
2023-04-13T05:44:02.290Z,0.23
2023-04-13T05:45:02.454Z,0.26
2023-04-13T05:46:02.462Z,0.28
2023-04-13T05:47:02.997Z,0.28
2023-04-13T05:48:03.221Z,0.27
2023-04-13T05:49:02.581Z,0.25
2023-04-13T05:50:02.740Z,0.25
2023-04-13T05:51:02.667Z,0.25
2023-04-13T05:52:02.597Z,0.26
2023-04-13T05:53:02.325Z,0.26
2023-04-13T05:54:02.639Z,0.26
2023-04-13T05:55:02.510Z,0.25
2023-04-13T05:56:02.393Z,0.22
2023-04-13T05:57:03.176Z,0.23
2023-04-13T05:58:02.869Z,0.22
2023-04-13T05:59:02.909Z,0.21
2023-04-13T06:00:02.939Z,0.21
2023-04-13T06:01:02.875Z,0.20
2023-04-13T06:02:01.906Z,0.23
2023-04-13T06:03:02.224Z,0.21
2023-04-13T06:04:02.104Z,0.19
2023-04-13T06:05:02.240Z,0.20
2023-04-13T06:06:02.072Z,0.19
2023-04-13T06:07:01.822Z,0.17
2023-04-13T06:08:02.446Z,0.17
2023-04-13T06:09:02.545Z,0.17
2023-04-13T06:10:02.223Z,0.16
2023-04-13T06:11:01.948Z,0.16
2023-04-13T06:12:02.486Z,0.17
2023-04-13T06:13:02.463Z,0.16
2023-04-13T06:14:03.077Z,0.16
2023-04-13T06:15:03.071Z,0.16
2023-04-13T06:16:02.601Z,0.14
2023-04-13T06:17:02.311Z,0.15
2023-04-13T06:18:02.380Z,0.14
2023-04-13T06:19:02.945Z,0.15
2023-04-13T06:20:02.722Z,0.13
2023-04-13T06:21:02.272Z,0.13
2023-04-13T06:22:02.341Z,0.15
2023-04-13T06:23:02.708Z,0.16
2023-04-13T06:24:02.614Z,0.16
2023-04-13T06:25:02.464Z,0.19
2023-04-13T06:26:04.310Z,0.21
2023-04-13T06:27:01.913Z,0.23
2023-04-13T06:28:02.342Z,0.27
2023-04-13T06:29:02.130Z,0.33
2023-04-13T06:30:02.421Z,0.36
2023-04-13T06:31:02.165Z,0.39
2023-04-13T06:32:02.360Z,0.35
2023-04-13T06:33:02.361Z,0.30
2023-04-13T06:34:02.547Z,0.31
2023-04-13T06:35:02.397Z,0.32
2023-04-13T06:36:02.200Z,0.32
2023-04-13T06:37:02.636Z,0.32
2023-04-13T06:38:03.163Z,0.32
2023-04-13T06:39:02.694Z,0.32
2023-04-13T06:40:02.837Z,0.32
2023-04-13T06:41:03.133Z,0.29
2023-04-13T06:42:02.624Z,0.26
2023-04-13T06:43:02.798Z,0.27
2023-04-13T06:44:02.604Z,0.25
2023-04-13T06:45:02.859Z,0.24
2023-04-13T06:46:03.035Z,0.25
2023-04-13T06:47:02.013Z,0.26
2023-04-13T06:48:01.873Z,0.25
2023-04-13T06:49:01.996Z,0.24
2023-04-13T06:50:01.918Z,0.23
2023-04-13T06:51:01.950Z,0.23
2023-04-13T06:52:02.481Z,0.22
2023-04-13T06:53:02.362Z,0.22
2023-04-13T06:54:02.548Z,0.21
2023-04-13T06:55:02.380Z,0.24
2023-04-13T06:56:02.282Z,0.27
2023-04-13T06:57:02.109Z,0.28
2023-04-13T06:58:01.873Z,0.27
2023-04-13T06:59:02.858Z,0.24
2023-04-13T07:00:01.880Z,0.28
2023-04-13T07:01:02.128Z,0.37
2023-04-13T07:02:02.471Z,0.41
2023-04-13T07:03:02.325Z,0.40
2023-04-13T07:04:02.329Z,0.40
2023-04-13T07:05:01.979Z,0.40
2023-04-13T07:06:01.911Z,0.43
2023-04-13T07:07:02.416Z,0.49
2023-04-13T07:08:02.247Z,0.54
2023-04-13T07:09:02.782Z,0.53
2023-04-13T07:10:02.782Z,0.51
2023-04-13T07:11:02.353Z,0.50
2023-04-13T07:12:01.888Z,0.48
2023-04-13T07:13:01.639Z,0.43
2023-04-13T07:14:02.112Z,0.39
2023-04-13T07:15:01.865Z,0.35
2023-04-13T07:16:01.734Z,0.37
2023-04-13T07:17:02.862Z,0.38
2023-04-13T07:18:02.576Z,0.36
2023-04-13T07:19:02.523Z,0.38
2023-04-13T07:20:02.302Z,0.37
2023-04-13T07:21:02.939Z,0.34
2023-04-13T07:22:02.312Z,0.40
2023-04-13T07:23:02.465Z,0.44
2023-04-13T07:24:02.268Z,0.46
2023-04-13T07:25:02.012Z,0.47
2023-04-13T07:26:01.917Z,0.49
2023-04-13T07:27:02.276Z,0.46
2023-04-13T07:28:02.287Z,0.41
2023-04-13T07:29:02.152Z,0.36
2023-04-13T07:30:02.151Z,0.34
2023-04-13T07:31:02.064Z,0.33
2023-04-13T07:32:02.438Z,0.39
2023-04-13T07:33:02.534Z,0.41
2023-04-13T07:34:02.443Z,0.42
2023-04-13T07:35:02.716Z,0.40
2023-04-13T07:36:02.055Z,0.32
2023-04-13T07:37:01.954Z,0.27
2023-04-13T07:38:01.803Z,0.24
2023-04-13T07:39:01.812Z,0.26
2023-04-13T07:40:01.975Z,0.28
2023-04-13T07:41:01.903Z,0.30
2023-04-13T07:42:02.429Z,0.36
2023-04-13T07:43:02.380Z,0.48
2023-04-13T07:44:02.241Z,0.55
2023-04-13T07:45:02.193Z,0.50
2023-04-13T07:46:02.040Z,0.49
2023-04-13T07:47:02.724Z,0.57
2023-04-13T07:48:02.561Z,0.68
2023-04-13T07:49:02.829Z,0.76
2023-04-13T07:50:02.501Z,0.97
2023-04-13T07:51:02.438Z,1.17
2023-04-13T07:52:02.105Z,0.79
2023-04-13T07:53:01.951Z,0.84
2023-04-13T07:54:01.730Z,1.06
2023-04-13T07:55:01.639Z,1.48
2023-04-13T07:56:02.232Z,1.32
2023-04-13T07:57:02.177Z,1.02
2023-04-13T07:58:01.955Z,1.06
2023-04-13T07:59:02.050Z,1.04
2023-04-13T08:00:01.730Z,0.94
2023-04-13T08:01:01.836Z,0.87
2023-04-13T08:02:02.378Z,0.81
2023-04-13T08:03:02.458Z,0.75
2023-04-13T08:04:02.333Z,0.55
2023-04-13T08:05:02.360Z,0.41
2023-04-13T08:06:02.184Z,0.42
2023-04-13T08:07:02.795Z,0.54
2023-04-13T08:08:02.704Z,0.63
2023-04-13T08:09:02.657Z,0.63
2023-04-13T08:10:02.615Z,0.67
2023-04-13T08:11:02.524Z,0.75
2023-04-13T08:12:02.218Z,0.87
2023-04-13T08:13:01.932Z,1.01
2023-04-13T08:14:01.799Z,1.13
2023-04-13T08:15:01.731Z,1.10
2023-04-13T08:16:02.378Z,1.08
2023-04-13T08:17:03.964Z,1.02
2023-04-13T08:18:02.733Z,1.14
2023-04-13T08:19:02.781Z,1.18
2023-04-13T08:20:02.716Z,1.18
2023-04-13T08:21:02.645Z,1.10
2023-04-13T08:22:02.380Z,1.24
2023-04-13T08:23:01.933Z,1.42
2023-04-13T08:24:01.929Z,1.58
2023-04-13T08:25:02.305Z,1.23
2023-04-13T08:26:02.168Z,1.20
2023-04-13T08:27:02.842Z,1.17
2023-04-13T08:28:02.901Z,1.26
2023-04-13T08:29:02.519Z,1.35
2023-04-13T08:30:02.638Z,1.10
2023-04-13T08:31:02.653Z,1.02
2023-04-13T08:32:02.397Z,0.97
2023-04-13T08:33:01.910Z,0.94
2023-04-13T08:34:01.750Z,0.92
2023-04-13T08:35:02.294Z,0.94
2023-04-13T08:36:02.036Z,0.89
2023-04-13T08:37:02.914Z,0.83
2023-04-13T08:38:02.342Z,0.71
2023-04-13T08:39:02.675Z,0.70
2023-04-13T08:40:02.612Z,0.66
2023-04-13T08:41:02.768Z,0.65
2023-04-13T08:42:01.720Z,0.75
2023-04-13T08:43:02.277Z,0.76
2023-04-13T08:44:01.906Z,0.75
2023-04-13T08:45:01.786Z,0.79
2023-04-13T08:46:01.772Z,0.81
2023-04-13T08:47:02.151Z,0.87
2023-04-13T08:48:02.155Z,0.80
2023-04-13T08:49:02.424Z,0.85
2023-04-13T08:50:01.851Z,0.93
2023-04-13T08:51:01.945Z,0.88
2023-04-13T08:52:02.223Z,0.87
2023-04-13T08:53:02.266Z,0.86
2023-04-13T08:54:02.196Z,0.80
2023-04-13T08:55:02.170Z,0.76
2023-04-13T08:56:02.098Z,0.72
2023-04-13T08:57:02.086Z,0.68
2023-04-13T08:58:02.274Z,0.61
2023-04-13T08:59:02.649Z,0.60
2023-04-13T09:00:02.528Z,0.64
2023-04-13T09:01:02.464Z,0.78
2023-04-13T09:02:02.565Z,0.91
2023-04-13T09:03:04.575Z,0.95
2023-04-13T09:04:02.995Z,0.88
2023-04-13T09:05:03.250Z,0.85
2023-04-13T09:06:02.878Z,0.85
2023-04-13T09:07:03.031Z,0.88
2023-04-13T09:08:03.115Z,0.88
2023-04-13T09:09:03.012Z,0.87
2023-04-13T09:10:03.082Z,0.96
2023-04-13T09:11:03.018Z,1.03
2023-04-13T09:12:02.973Z,1.12
2023-04-13T09:13:03.024Z,1.23
2023-04-13T09:14:03.212Z,1.32
2023-04-13T09:15:02.906Z,1.39
2023-04-13T09:16:03.085Z,1.39
2023-04-13T09:17:05.610Z,1.47
2023-04-13T09:18:03.504Z,1.87
2023-04-13T09:19:03.237Z,1.86
2023-04-13T09:20:03.085Z,1.43
2023-04-13T09:21:03.121Z,1.56
2023-04-13T09:22:03.080Z,1.60
2023-04-13T09:23:04.943Z,1.51
2023-04-13T09:24:03.023Z,1.54
2023-04-13T09:25:02.762Z,1.76
2023-04-13T09:26:02.766Z,1.86
2023-04-13T09:27:02.818Z,1.81
2023-04-13T09:28:02.834Z,1.75
2023-04-13T09:29:02.737Z,1.73
2023-04-13T09:30:02.679Z,1.81
2023-04-13T09:31:02.794Z,1.92
2023-04-13T09:32:03.313Z,3.41
2023-04-13T09:33:03.361Z,1.86
2023-04-13T09:34:03.552Z,3.15
2023-04-13T09:35:03.740Z,2.64
2023-04-13T09:36:03.432Z,2.24
2023-04-13T09:37:02.622Z,2.31
2023-04-13T09:38:02.381Z,2.08
2023-04-13T09:39:03.099Z,1.88
2023-04-13T09:40:02.774Z,1.70
2023-04-13T09:41:02.270Z,1.69
2023-04-13T09:42:02.924Z,1.75
2023-04-13T09:43:03.248Z,1.80
2023-04-13T09:44:03.349Z,1.37
2023-04-13T09:45:03.072Z,1.36
2023-04-13T09:46:02.978Z,1.43
2023-04-13T09:47:03.148Z,1.56
2023-04-13T09:48:03.208Z,1.74
2023-04-13T09:49:03.181Z,1.57
2023-04-13T09:50:03.162Z,1.43
2023-04-13T09:51:02.857Z,1.32
2023-04-13T09:52:03.326Z,1.33
2023-04-13T09:53:03.441Z,1.43
2023-04-13T09:54:03.757Z,2.06
2023-04-13T09:55:03.748Z,2.65
2023-04-13T09:56:03.507Z,3.72
2023-04-13T09:57:02.910Z,3.65
2023-04-13T09:58:02.791Z,3.52
2023-04-13T09:59:03.208Z,2.89
2023-04-13T10:00:03.068Z,2.60
2023-04-13T10:01:03.288Z,1.64
2023-04-13T10:02:02.977Z,1.96
2023-04-13T10:03:02.957Z,1.98
2023-04-13T10:04:03.036Z,1.82
2023-04-13T10:05:03.214Z,2.25
2023-04-13T10:06:03.123Z,2.78
2023-04-13T10:07:02.188Z,2.18
2023-04-13T10:08:01.864Z,1.63
2023-04-13T10:09:02.030Z,1.98
2023-04-13T10:10:02.335Z,1.95
2023-04-13T10:11:02.313Z,2.05
2023-04-13T10:12:02.279Z,3.02
2023-04-13T10:13:02.364Z,3.37
2023-04-13T10:14:02.620Z,3.31
2023-04-13T10:15:02.186Z,3.22
2023-04-13T10:16:04.112Z,2.79
2023-04-13T10:17:02.876Z,2.73
2023-04-13T10:18:02.865Z,2.60
2023-04-13T10:19:02.963Z,2.64
2023-04-13T10:20:03.159Z,2.81
2023-04-13T10:21:02.922Z,1.95
2023-04-13T10:22:02.542Z,3.16
2023-04-13T10:23:02.198Z,1.64
2023-04-13T10:24:02.730Z,2.55
2023-04-13T10:25:02.386Z,2.87
2023-04-13T10:26:02.266Z,3.63
2023-04-13T10:27:02.912Z,2.55
2023-04-13T10:28:03.202Z,2.18
2023-04-13T10:29:03.234Z,2.60
2023-04-13T10:30:02.992Z,1.66
2023-04-13T10:31:03.074Z,1.94
2023-04-13T10:32:03.073Z,2.10
2023-04-13T10:33:02.398Z,1.98
2023-04-13T10:34:02.430Z,2.57
2023-04-13T10:35:02.669Z,2.67
2023-04-13T10:36:02.334Z,2.93
2023-04-13T10:37:02.318Z,1.62
2023-04-13T10:38:02.471Z,1.70
2023-04-13T10:39:02.240Z,1.62
2023-04-13T10:40:01.976Z,1.18
2023-04-13T10:41:02.188Z,0.97
2023-04-13T10:42:02.399Z,0.95
2023-04-13T10:43:02.442Z,0.93
2023-04-13T10:44:02.318Z,0.95
2023-04-13T10:45:02.256Z,1.18
2023-04-13T10:46:02.084Z,2.77
2023-04-13T10:47:02.562Z,1.90
2023-04-13T10:48:02.205Z,1.15
2023-04-13T10:49:02.432Z,1.05
2023-04-13T10:50:02.541Z,1.21
2023-04-13T10:51:02.706Z,1.47
2023-04-13T10:52:02.989Z,3.50
2023-04-13T10:53:03.006Z,3.76
2023-04-13T10:54:03.038Z,2.39
2023-04-13T10:55:03.131Z,3.24
2023-04-13T10:56:02.938Z,3.39
2023-04-13T10:57:03.108Z,3.45
2023-04-13T10:58:02.768Z,3.61
2023-04-13T10:59:02.651Z,3.89
2023-04-13T11:00:03.156Z,3.92
2023-04-13T11:01:03.258Z,3.05
2023-04-13T11:02:02.667Z,3.62
2023-04-13T11:03:02.387Z,3.73
2023-04-13T11:04:05.308Z,2.19
2023-04-13T11:05:02.749Z,2.05
2023-04-13T11:06:02.447Z,2.61
2023-04-13T11:07:02.853Z,2.41
2023-04-13T11:08:02.746Z,2.26
2023-04-13T11:09:02.547Z,2.06
2023-04-13T11:10:03.762Z,3.42
2023-04-13T11:11:02.899Z,3.46
2023-04-13T11:12:03.262Z,2.91
2023-04-13T11:13:03.170Z,1.07
2023-04-13T11:14:03.378Z,0.97
2023-04-13T11:15:03.237Z,1.08
2023-04-13T11:16:03.182Z,1.14
2023-04-13T11:17:03.442Z,1.12
2023-04-13T11:18:03.347Z,1.18
2023-04-13T11:19:03.505Z,1.25
2023-04-13T11:20:03.106Z,1.28
2023-04-13T11:21:04.688Z,1.32
2023-04-13T11:22:02.911Z,1.39
2023-04-13T11:23:02.444Z,1.51
2023-04-13T11:24:02.442Z,1.75
2023-04-13T11:25:02.599Z,3.79
2023-04-13T11:26:02.381Z,1.86
2023-04-13T11:27:02.930Z,3.84
2023-04-13T11:28:03.006Z,2.93
2023-04-13T11:29:02.773Z,4.18
2023-04-13T11:30:02.621Z,4.29
2023-04-13T11:31:02.581Z,4.13
2023-04-13T11:32:03.234Z,2.10
2023-04-13T11:33:03.311Z,1.71
2023-04-13T11:34:03.151Z,1.62
2023-04-13T11:35:02.791Z,1.58
2023-04-13T11:36:03.227Z,1.37
2023-04-13T11:37:03.320Z,1.32
2023-04-13T11:38:02.908Z,1.32
2023-04-13T11:39:03.062Z,2.79
2023-04-13T11:40:03.186Z,3.10
2023-04-13T11:42:02.954Z,2.88
2023-04-13T11:43:02.600Z,3.16
2023-04-13T11:44:02.821Z,3.09
2023-04-13T11:45:02.828Z,3.47
2023-04-13T11:46:02.922Z,3.57
2023-04-13T11:47:03.456Z,3.53
2023-04-13T11:48:03.213Z,3.02
2023-04-13T11:49:03.340Z,3.02
2023-04-13T11:50:03.313Z,2.81
2023-04-13T11:51:03.600Z,1.54
2023-04-13T11:52:02.494Z,1.24
2023-04-13T11:53:02.797Z,1.03
2023-04-13T11:54:02.958Z,0.86
2023-04-13T11:55:14.768Z,0.71
2023-04-13T11:56:02.924Z,0.66
2023-04-13T11:57:02.938Z,0.66
2023-04-13T11:58:02.434Z,0.67
2023-04-13T11:59:02.485Z,0.72
2023-04-13T12:00:02.114Z,0.79
2023-04-13T12:01:03.450Z,0.91
2023-04-13T12:02:04.696Z,1.09
2023-04-13T12:03:03.392Z,1.28
2023-04-13T12:04:12.712Z,1.89
2023-04-13T12:05:02.847Z,3.52
2023-04-13T12:06:02.745Z,2.89
2023-04-13T12:07:03.220Z,3.22
2023-04-13T12:08:02.873Z,3.53
2023-04-13T12:09:09.329Z,3.04
2023-04-13T12:10:05.724Z,2.03
2023-04-13T12:12:39.263Z,2.58
2023-04-13T12:14:09.890Z,1.84
2023-04-13T12:16:08.685Z,1.69
2023-04-13T12:17:12.383Z,1.52
2023-04-13T12:18:14.288Z,1.91
2023-04-13T12:19:02.979Z,2.83
2023-04-13T12:20:04.119Z,2.81
2023-04-13T12:21:02.635Z,2.95
2023-04-13T12:22:03.543Z,2.95
2023-04-13T12:23:12.501Z,3.12
2023-04-13T12:24:02.674Z,3.23
2023-04-13T12:25:02.743Z,3.15
2023-04-13T12:26:18.798Z,1.92
2023-04-13T12:27:17.951Z,1.66
2023-04-13T12:28:02.786Z,1.35
2023-04-13T12:29:02.799Z,1.20
2023-04-13T12:30:03.048Z,1.14
2023-04-13T12:31:03.301Z,1.11
2023-04-13T12:32:02.956Z,1.09
2023-04-13T12:33:02.981Z,1.14
2023-04-13T12:34:02.372Z,1.44
2023-04-13T12:35:02.439Z,3.12
2023-04-13T12:36:02.856Z,3.07
2023-04-13T12:37:02.921Z,2.97
2023-04-13T12:38:01.952Z,1.07
2023-04-13T12:39:01.972Z,2.71
2023-04-13T12:40:02.249Z,2.68
2023-04-13T12:41:02.366Z,2.71
2023-04-13T12:42:02.100Z,2.75
2023-04-13T12:43:02.540Z,2.78
2023-04-13T12:44:02.462Z,2.78
2023-04-13T12:45:02.801Z,2.79
2023-04-13T12:46:02.836Z,2.98
2023-04-13T12:47:02.638Z,3.08
2023-04-13T12:48:02.116Z,1.31
2023-04-13T12:49:03.088Z,1.32
2023-04-13T12:50:02.528Z,3.17
2023-04-13T12:51:02.653Z,3.34
2023-04-13T12:52:02.577Z,3.20
2023-04-13T12:53:02.852Z,3.13
2023-04-13T12:54:02.843Z,1.62
2023-04-13T12:55:02.695Z,1.43
2023-04-13T12:56:02.933Z,1.48
2023-04-13T12:57:02.703Z,3.14
2023-04-13T12:58:02.438Z,3.05
2023-04-13T12:59:02.873Z,1.76
2023-04-13T13:00:02.065Z,1.75
2023-04-13T13:01:02.593Z,2.67
2023-04-13T13:02:02.522Z,3.17
2023-04-13T13:03:13.099Z,3.38
2023-04-13T13:04:02.941Z,3.43
2023-04-13T13:05:03.116Z,3.52
2023-04-13T13:06:03.034Z,2.04
2023-04-13T13:07:03.086Z,3.64
2023-04-13T13:08:02.019Z,1.77
2023-04-13T13:09:02.567Z,3.55
2023-04-13T13:10:02.518Z,1.73
2023-04-13T13:11:01.964Z,2.32
2023-04-13T13:12:02.031Z,1.40
2023-04-13T13:13:02.436Z,1.48
2023-04-13T13:14:02.193Z,1.20
2023-04-13T13:15:02.178Z,1.14
2023-04-13T13:16:02.809Z,1.18
2023-04-13T13:17:02.361Z,1.20
2023-04-13T13:18:02.849Z,1.16
2023-04-13T13:19:03.079Z,1.14
2023-04-13T13:20:03.065Z,1.22
2023-04-13T13:21:02.827Z,1.00
2023-04-13T13:22:02.717Z,0.94
2023-04-13T13:23:03.214Z,0.88
2023-04-13T13:24:02.855Z,0.85